createdAt,value
2018-09-03T00:02:23.461Z,2.60
2018-09-03T00:04:51.740Z,2.70
2018-09-03T00:07:19.942Z,3.03
2018-09-03T00:09:48.181Z,2.60
2018-09-03T00:12:16.429Z,2.70
2018-09-03T00:14:44.669Z,2.63
2018-09-03T00:17:12.925Z,3.30
2018-09-03T00:19:41.115Z,2.87
2018-09-03T00:22:09.339Z,2.63
2018-09-03T00:24:44.210Z,2.87
2018-09-03T00:27:12.439Z,3.30
2018-09-03T00:29:40.666Z,2.83
2018-09-03T00:32:14.139Z,2.63
2018-09-03T00:34:47.731Z,2.77
2018-09-03T00:37:21.262Z,3.00
2018-09-03T00:39:54.841Z,2.57
2018-09-03T00:42:28.353Z,2.93
2018-09-03T00:45:01.797Z,2.83
2018-09-03T00:47:29.989Z,2.87
2018-09-03T00:49:58.311Z,2.57
2018-09-03T00:52:26.611Z,3.00
2018-09-03T00:54:54.825Z,2.73
2018-09-03T00:57:23.006Z,2.97
2018-09-03T00:59:51.223Z,3.13
2018-09-03T01:02:19.399Z,2.90
2018-09-03T01:04:47.678Z,2.73
2018-09-03T01:07:15.928Z,3.00
2018-09-03T01:09:44.144Z,2.70
2018-09-03T01:12:12.312Z,2.77
2018-09-03T01:14:40.628Z,3.33
2018-09-03T01:17:08.933Z,3.10
2018-09-03T01:19:37.215Z,2.83
2018-09-03T01:22:05.561Z,2.80
2018-09-03T01:24:33.792Z,2.80
2018-09-03T01:27:02.011Z,3.07
2018-09-03T01:29:30.295Z,3.37
2018-09-03T01:31:58.458Z,3.00
2018-09-03T01:34:27.334Z,2.80
2018-09-03T01:36:55.528Z,3.27
2018-09-03T01:39:23.765Z,3.00
2018-09-03T01:41:52.035Z,3.30
2018-09-03T01:44:20.247Z,2.57
2018-09-03T01:46:48.408Z,2.80
2018-09-03T01:49:16.629Z,2.97
2018-09-03T01:51:44.835Z,2.80
2018-09-03T01:54:13.047Z,3.27
2018-09-03T01:56:41.284Z,3.30
2018-09-03T01:59:09.466Z,2.80
2018-09-03T02:01:37.655Z,2.47
2018-09-03T02:04:06.169Z,3.03
2018-09-03T02:06:34.387Z,3.10
2018-09-03T02:09:02.634Z,2.83
2018-09-03T02:11:30.803Z,3.23
2018-09-03T02:13:59.288Z,3.40
2018-09-03T02:16:27.483Z,2.83
2018-09-03T02:18:55.700Z,3.40
2018-09-03T02:21:23.916Z,3.10
2018-09-03T02:23:52.158Z,3.40
2018-09-03T02:26:20.308Z,3.47
2018-09-03T02:28:48.514Z,2.73
2018-09-03T02:31:16.808Z,3.23
2018-09-03T02:33:45.020Z,2.93
2018-09-03T02:36:13.215Z,3.27
2018-09-03T02:38:41.389Z,3.07
2018-09-03T02:41:09.686Z,3.27
2018-09-03T02:43:37.942Z,2.77
2018-09-03T02:46:06.406Z,3.20
2018-09-03T02:48:34.659Z,2.80
2018-09-03T02:51:02.852Z,2.90
2018-09-03T02:53:31.158Z,3.10
2018-09-03T02:55:59.439Z,3.10
2018-09-03T02:58:27.685Z,3.40
2018-09-03T03:00:55.864Z,3.63
2018-09-03T03:03:24.053Z,3.17
2018-09-03T03:05:52.248Z,3.10
2018-09-03T03:08:20.499Z,3.03
2018-09-03T03:10:48.796Z,3.33
2018-09-03T03:13:17.005Z,3.53
2018-09-03T03:15:45.166Z,3.33
2018-09-03T03:18:13.672Z,3.80
2018-09-03T03:20:41.860Z,3.27
2018-09-03T03:23:10.039Z,3.50
2018-09-03T03:25:38.219Z,3.70
2018-09-03T03:28:06.427Z,3.90
2018-09-03T03:30:34.635Z,3.27
2018-09-03T03:33:02.892Z,3.50
2018-09-03T03:35:31.139Z,3.60
2018-09-03T03:37:59.309Z,3.50
2018-09-03T03:40:27.499Z,3.90
2018-09-03T03:42:55.699Z,4.10
2018-09-03T03:45:23.882Z,4.20
2018-09-03T03:47:52.155Z,3.87
2018-09-03T03:50:20.389Z,3.67
2018-09-03T03:52:48.591Z,3.47
2018-09-03T03:55:17.016Z,3.70
2018-09-03T03:57:45.274Z,3.87
2018-09-03T04:00:13.498Z,3.63
2018-09-03T04:02:41.688Z,4.07
2018-09-03T04:05:09.892Z,3.83
2018-09-03T04:07:38.125Z,3.47
2018-09-03T04:10:06.701Z,3.90
2018-09-03T04:12:35.025Z,4.10
2018-09-03T04:15:03.239Z,3.67
2018-09-03T04:17:31.444Z,3.87
2018-09-03T04:20:02.104Z,3.90
2018-09-03T04:22:30.612Z,4.10
2018-09-03T04:24:58.802Z,3.97
2018-09-03T04:27:27.006Z,3.63
2018-09-03T04:29:55.242Z,3.77
2018-09-03T04:32:23.667Z,3.77
2018-09-03T04:34:51.842Z,3.37
2018-09-03T04:37:20.044Z,3.87
2018-09-03T04:39:48.326Z,3.67
2018-09-03T04:42:16.503Z,3.60
2018-09-03T04:44:44.730Z,3.90
2018-09-03T04:47:12.923Z,3.93
2018-09-03T04:49:41.179Z,3.80
2018-09-03T04:52:09.430Z,3.83
2018-09-03T04:54:37.655Z,4.07
2018-09-03T04:57:05.869Z,4.27
2018-09-03T04:59:34.091Z,3.80
2018-09-03T05:02:02.320Z,4.53
2018-09-03T05:04:30.543Z,3.80
2018-09-03T05:06:58.770Z,4.47
2018-09-03T05:09:26.963Z,4.87
2018-09-03T05:11:55.239Z,4.10
2018-09-03T05:14:23.406Z,4.23
2018-09-03T05:16:51.740Z,4.27
2018-09-03T05:19:19.990Z,4.27
2018-09-03T05:21:48.294Z,4.30
2018-09-03T05:24:16.592Z,4.30
2018-09-03T05:26:45.120Z,4.13
2018-09-03T05:29:13.378Z,3.97
2018-09-03T05:31:41.652Z,4.47
2018-09-03T05:34:09.874Z,4.30
2018-09-03T05:36:38.068Z,4.20
2018-09-03T05:39:08.861Z,4.20
2018-09-03T05:41:37.094Z,4.20
2018-09-03T05:44:05.750Z,4.17
2018-09-03T05:46:34.208Z,4.30
2018-09-03T05:49:02.506Z,5.13
2018-09-03T05:51:30.792Z,5.17
2018-09-03T05:53:58.995Z,4.83
2018-09-03T05:56:27.208Z,4.60
2018-09-03T05:58:55.495Z,5.30
2018-09-03T06:01:23.739Z,4.87
2018-09-03T06:03:51.958Z,5.13
2018-09-03T06:06:20.176Z,5.47
2018-09-03T06:08:48.366Z,5.40
2018-09-03T06:11:16.644Z,4.53
2018-09-03T06:13:44.839Z,4.60
2018-09-03T06:16:13.350Z,4.57
2018-09-03T06:18:41.795Z,5.40
2018-09-03T06:21:09.986Z,5.50
2018-09-03T06:23:38.297Z,5.37
2018-09-03T06:26:06.775Z,5.40
2018-09-03T06:28:35.278Z,5.40
2018-09-03T06:31:03.764Z,5.00
2018-09-03T06:33:31.955Z,5.37
2018-09-03T06:36:00.201Z,5.40
2018-09-03T06:38:28.396Z,5.57
2018-09-03T06:40:56.609Z,5.13
2018-09-03T06:43:24.844Z,4.93
2018-09-03T06:45:53.093Z,5.30
2018-09-03T06:48:21.388Z,5.10
2018-09-03T06:50:49.602Z,5.40
2018-09-03T06:53:18.051Z,6.23
2018-09-03T06:55:46.326Z,5.67
2018-09-03T06:58:14.502Z,5.07
2018-09-03T07:00:42.702Z,5.20
2018-09-03T07:03:10.890Z,5.67
2018-09-03T07:05:39.148Z,4.97
2018-09-03T07:08:07.363Z,5.83
2018-09-03T07:10:35.562Z,5.60
2018-09-03T07:13:06.853Z,6.00
2018-09-03T07:15:35.710Z,5.20
2018-09-03T07:18:04.450Z,6.47
2018-09-03T07:20:32.654Z,5.47
2018-09-03T07:23:00.862Z,5.33
2018-09-03T07:25:29.098Z,6.03
2018-09-03T07:27:57.299Z,5.83
2018-09-03T07:30:25.499Z,4.80
2018-09-03T07:32:53.780Z,5.73
2018-09-03T07:35:22.035Z,4.70
2018-09-03T07:37:50.236Z,5.40
2018-09-03T07:40:18.404Z,5.70
2018-09-03T07:42:46.625Z,6.50
2018-09-03T07:45:14.861Z,5.13
2018-09-03T07:47:43.103Z,4.90
2018-09-03T07:50:11.247Z,4.97
2018-09-03T07:52:39.483Z,5.27
2018-09-03T07:55:07.711Z,5.30
2018-09-03T07:57:35.947Z,5.00
2018-09-03T08:00:04.750Z,6.43
2018-09-03T08:02:33.020Z,6.67
2018-09-03T08:05:01.260Z,6.00
2018-09-03T08:07:29.482Z,6.57
2018-09-03T08:09:57.677Z,6.60
2018-09-03T08:12:25.857Z,6.77
2018-09-03T08:14:54.178Z,6.57
2018-09-03T08:17:22.371Z,6.70
2018-09-03T08:19:50.651Z,6.60
2018-09-03T08:22:18.797Z,6.57
2018-09-03T08:24:47.034Z,6.50
2018-09-03T08:27:15.241Z,6.50
2018-09-03T08:29:43.426Z,6.00
2018-09-03T08:32:11.615Z,7.03
2018-09-03T08:34:39.796Z,6.30
2018-09-03T08:37:08.237Z,6.10
2018-09-03T08:39:36.445Z,6.07
2018-09-03T08:42:04.672Z,5.63
2018-09-03T08:44:32.948Z,6.70
2018-09-03T08:47:01.063Z,7.00
2018-09-03T08:49:29.364Z,7.63
2018-09-03T08:51:57.571Z,7.47
2018-09-03T08:54:25.768Z,7.10
2018-09-03T08:56:53.993Z,6.00
2018-09-03T08:59:22.251Z,6.50
2018-09-03T09:01:50.436Z,7.13
2018-09-03T09:04:18.646Z,6.20
2018-09-03T09:06:46.832Z,6.73
2018-09-03T09:09:15.006Z,5.97
2018-09-03T09:11:43.237Z,6.57
2018-09-03T09:14:11.439Z,7.37
2018-09-03T09:16:39.679Z,7.40
2018-09-03T09:19:07.923Z,6.67
2018-09-03T09:21:36.122Z,7.03
2018-09-03T09:24:04.312Z,7.07
2018-09-03T09:26:32.567Z,6.87
2018-09-03T09:29:00.759Z,6.70
2018-09-03T09:31:28.947Z,6.07
2018-09-03T09:33:57.145Z,6.83
2018-09-03T09:36:25.363Z,7.37
2018-09-03T09:38:53.588Z,7.40
2018-09-03T09:41:21.885Z,7.60
2018-09-03T09:43:50.072Z,7.83
2018-09-03T09:46:18.310Z,7.37
2018-09-03T09:48:46.583Z,7.30
2018-09-03T09:51:14.830Z,7.30
2018-09-03T09:53:43.024Z,6.37
2018-09-03T09:56:11.221Z,6.60
2018-09-03T09:58:39.406Z,6.67
2018-09-03T10:01:12.849Z,6.80
2018-09-03T10:03:41.050Z,7.20
2018-09-03T10:06:09.347Z,6.47
2018-09-03T10:08:37.569Z,6.73
2018-09-03T10:11:05.907Z,7.47
2018-09-03T10:13:34.181Z,6.17
2018-09-03T10:16:02.371Z,5.33
2018-09-03T10:18:30.643Z,6.67
2018-09-03T10:20:58.879Z,5.90
2018-09-03T10:23:27.081Z,6.57
2018-09-03T10:25:55.259Z,6.30
2018-09-03T10:28:23.443Z,5.97
2018-09-03T10:30:51.629Z,5.50
2018-09-03T10:33:19.824Z,5.80
2018-09-03T10:35:48.046Z,6.13
2018-09-03T10:38:16.282Z,6.43
2018-09-03T10:40:44.388Z,6.47
2018-09-03T10:43:12.655Z,5.97
2018-09-03T10:45:45.080Z,5.50
2018-09-03T10:48:14.479Z,6.20
2018-09-03T10:50:42.672Z,6.37
2018-09-03T10:53:11.048Z,5.70
2018-09-03T10:55:39.953Z,5.13
2018-09-03T10:58:08.242Z,5.70
2018-09-03T11:00:36.495Z,6.20
2018-09-03T11:03:04.691Z,6.10
2018-09-03T11:05:32.928Z,6.33
2018-09-03T11:08:01.091Z,5.60
2018-09-03T11:10:29.479Z,4.73
2018-09-03T11:12:57.771Z,4.93
2018-09-03T11:15:25.944Z,5.80
2018-09-03T11:17:54.144Z,5.43
2018-09-03T11:20:26.681Z,6.03
2018-09-03T11:22:55.375Z,6.27
2018-09-03T11:25:24.738Z,5.53
2018-09-03T11:27:53.701Z,5.00
2018-09-03T11:30:22.176Z,5.23
2018-09-03T11:32:55.552Z,5.70
2018-09-03T11:35:24.351Z,5.33
2018-09-03T11:37:52.558Z,6.10
2018-09-03T11:40:21.467Z,6.00
2018-09-03T11:42:49.746Z,5.57
2018-09-03T11:45:19.277Z,4.70
2018-09-03T11:47:47.847Z,5.70
2018-09-03T11:50:16.670Z,6.20
2018-09-03T11:52:44.916Z,6.70
2018-09-03T11:55:13.471Z,5.90
2018-09-03T11:57:41.788Z,6.20
2018-09-03T12:00:12.246Z,6.87
2018-09-03T12:02:40.475Z,5.50
2018-09-03T12:05:09.363Z,6.07
2018-09-03T12:07:37.578Z,7.50
2018-09-03T12:10:06.328Z,6.70
2018-09-03T12:12:35.160Z,7.10
2018-09-03T12:15:37.754Z,7.07
2018-09-03T12:18:06.026Z,7.87
2018-09-03T12:20:34.291Z,6.30
2018-09-03T12:23:02.528Z,7.03
2018-09-03T12:25:30.760Z,6.70
2018-09-03T12:27:59.175Z,7.07
2018-09-03T12:30:27.393Z,7.67
2018-09-03T12:32:55.604Z,7.80
2018-09-03T12:35:23.845Z,7.20
2018-09-03T12:37:52.051Z,8.50
2018-09-03T12:40:20.275Z,7.27
2018-09-03T12:42:48.541Z,7.33
2018-09-03T12:45:16.763Z,8.03
2018-09-03T12:47:45.166Z,7.70
2018-09-03T12:50:13.521Z,7.67
2018-09-03T12:52:41.653Z,7.93
2018-09-03T12:55:09.891Z,7.73
2018-09-03T12:57:38.156Z,7.90
2018-09-03T13:00:20.270Z,8.10
2018-09-03T13:02:48.644Z,8.13
2018-09-03T13:05:17.088Z,7.70
2018-09-03T13:07:45.277Z,6.00
2018-09-03T13:10:13.555Z,7.67
2018-09-03T13:12:41.817Z,8.63
2018-09-03T13:15:10.002Z,8.50
2018-09-03T13:17:38.243Z,8.20
2018-09-03T13:20:06.576Z,7.90
2018-09-03T13:22:34.968Z,8.97
2018-09-03T13:25:03.180Z,10.57
2018-09-03T13:27:31.402Z,9.63
2018-09-03T13:29:59.575Z,8.10
2018-09-03T13:32:27.748Z,7.57
2018-09-03T13:34:55.991Z,8.53
2018-09-03T13:37:24.259Z,8.17
2018-09-03T13:39:52.463Z,9.17
2018-09-03T13:42:20.943Z,9.50
2018-09-03T13:44:49.043Z,10.00
2018-09-03T13:47:17.545Z,9.53
2018-09-03T13:49:45.732Z,11.23
2018-09-03T13:52:17.375Z,8.87
2018-09-03T13:54:45.812Z,9.43
2018-09-03T13:57:14.001Z,11.87
2018-09-03T13:59:42.291Z,9.80
2018-09-03T14:02:10.466Z,10.63
2018-09-03T14:04:39.022Z,9.60
2018-09-03T14:07:07.310Z,10.67
2018-09-03T14:09:36.043Z,10.70
2018-09-03T14:12:04.227Z,10.23
2018-09-03T14:14:32.403Z,9.77
2018-09-03T14:17:00.680Z,9.83
2018-09-03T14:19:28.908Z,10.27
2018-09-03T14:21:57.379Z,10.07
2018-09-03T14:24:25.563Z,10.70
2018-09-03T14:26:53.772Z,8.93
2018-09-03T14:29:21.964Z,9.47
2018-09-03T14:31:50.164Z,10.20
2018-09-03T14:34:18.411Z,10.10
2018-09-03T14:36:46.682Z,11.30
2018-09-03T14:39:14.887Z,11.43
2018-09-03T14:41:43.135Z,11.40
2018-09-03T14:44:11.522Z,11.73
2018-09-03T14:46:39.957Z,10.63
2018-09-03T14:49:08.526Z,10.37
2018-09-03T14:51:36.746Z,12.47
2018-09-03T14:54:05.107Z,10.63
2018-09-03T14:56:34.141Z,11.03
2018-09-03T14:59:02.462Z,10.93
2018-09-03T15:01:30.763Z,11.03
2018-09-03T15:03:59.048Z,13.30
2018-09-03T15:06:27.260Z,12.60
2018-09-03T15:08:55.451Z,10.83
2018-09-03T15:11:23.652Z,10.07
2018-09-03T15:13:59.523Z,11.10
2018-09-03T15:16:30.762Z,10.57
2018-09-03T15:18:59.799Z,12.70
2018-09-03T15:21:28.022Z,10.63
2018-09-03T15:23:56.511Z,10.67
2018-09-03T15:26:24.719Z,11.70
2018-09-03T15:28:53.276Z,10.50
2018-09-03T15:31:21.573Z,9.63
2018-09-03T15:33:49.796Z,10.77
2018-09-03T15:36:18.156Z,10.57
2018-09-03T15:38:46.290Z,11.23
2018-09-03T15:41:14.496Z,9.03
2018-09-03T15:43:42.691Z,9.80
2018-09-03T15:46:11.413Z,10.37
2018-09-03T15:48:39.963Z,9.87
2018-09-03T15:51:08.238Z,11.87
2018-09-03T15:53:36.515Z,12.23
2018-09-03T15:56:04.822Z,10.60
2018-09-03T15:58:33.244Z,10.60
2018-09-03T16:01:01.555Z,11.60
2018-09-03T16:03:29.908Z,10.80
2018-09-03T16:05:58.396Z,10.60
2018-09-03T16:08:26.618Z,10.00
2018-09-03T16:10:54.873Z,10.33
2018-09-03T16:13:23.056Z,11.37
2018-09-03T16:15:51.282Z,11.70
2018-09-03T16:18:19.565Z,11.10
2018-09-03T16:20:47.809Z,11.93
2018-09-03T16:23:15.970Z,10.90
2018-09-03T16:25:44.216Z,11.10
2018-09-03T16:28:12.555Z,10.73
2018-09-03T16:30:40.833Z,10.60
2018-09-03T16:33:09.039Z,11.97
2018-09-03T16:35:37.312Z,11.50
2018-09-03T16:38:05.631Z,10.67
2018-09-03T16:40:33.941Z,10.87
2018-09-03T16:43:02.140Z,10.67
2018-09-03T16:45:30.370Z,11.00
2018-09-03T16:47:58.639Z,10.43
2018-09-03T16:50:26.919Z,10.37
2018-09-03T16:52:55.120Z,9.90
2018-09-03T16:55:23.490Z,11.93
2018-09-03T16:57:51.671Z,10.73
2018-09-03T17:00:19.907Z,11.00
2018-09-03T17:02:48.152Z,10.80
2018-09-03T17:05:16.431Z,12.30
2018-09-03T17:07:44.711Z,10.10
2018-09-03T17:10:12.887Z,10.13
2018-09-03T17:12:41.101Z,10.93
2018-09-03T17:15:09.317Z,10.70
2018-09-03T17:17:37.539Z,10.87
2018-09-03T17:20:05.832Z,10.43
2018-09-03T17:22:34.039Z,9.97
2018-09-03T17:25:02.257Z,11.03
2018-09-03T17:27:30.450Z,10.43
2018-09-03T17:29:58.854Z,11.43
2018-09-03T17:32:27.107Z,11.83
2018-09-03T17:34:55.316Z,10.03
2018-09-03T17:37:23.520Z,11.63
2018-09-03T17:39:51.751Z,10.70
2018-09-03T17:42:20.023Z,12.07
2018-09-03T17:44:48.298Z,11.37
2018-09-03T17:47:16.487Z,11.83
2018-09-03T17:49:44.731Z,12.27
2018-09-03T17:52:12.938Z,11.47
2018-09-03T17:54:41.200Z,13.43
2018-09-03T17:57:09.411Z,13.57
2018-09-03T17:59:37.619Z,12.87
2018-09-03T18:02:05.872Z,13.27
2018-09-03T18:04:34.058Z,12.57
2018-09-03T18:07:02.284Z,13.33
2018-09-03T18:09:30.495Z,13.60
2018-09-03T18:11:58.663Z,13.23
2018-09-03T18:14:26.847Z,12.23
2018-09-03T18:16:55.067Z,11.87
2018-09-03T18:19:23.280Z,10.70
2018-09-03T18:21:51.531Z,12.60
2018-09-03T18:24:19.699Z,12.77
2018-09-03T18:26:47.883Z,11.83
2018-09-03T18:29:16.227Z,11.90
2018-09-03T18:31:44.781Z,11.97
2018-09-03T18:34:12.953Z,13.80
2018-09-03T18:36:41.161Z,12.10
2018-09-03T18:39:09.437Z,12.73
2018-09-03T18:41:37.738Z,12.47
2018-09-03T18:44:06.142Z,13.13
2018-09-03T18:46:34.323Z,12.77
2018-09-03T18:49:03.029Z,13.40
2018-09-03T18:51:31.279Z,13.07
2018-09-03T18:53:59.473Z,13.57
2018-09-03T18:56:27.848Z,13.77
2018-09-03T18:58:56.084Z,13.47
2018-09-03T19:01:24.368Z,14.33
2018-09-03T19:03:52.552Z,14.10
2018-09-03T19:06:20.855Z,13.10
2018-09-03T19:08:49.353Z,13.73
2018-09-03T19:11:17.994Z,13.67
2018-09-03T19:13:46.247Z,13.33
2018-09-03T19:16:14.505Z,13.60
2018-09-03T19:18:42.740Z,13.43
2018-09-03T19:21:10.972Z,13.07
2018-09-03T19:23:39.226Z,13.83
2018-09-03T19:26:07.523Z,14.30
2018-09-03T19:28:35.845Z,12.83
2018-09-03T19:31:04.026Z,13.20
2018-09-03T19:33:32.376Z,13.63
2018-09-03T19:36:00.614Z,14.20
2018-09-03T19:38:28.810Z,15.10
2018-09-03T19:40:57.002Z,14.50
2018-09-03T19:43:25.245Z,16.60
2018-09-03T19:45:53.491Z,15.70
2018-09-03T19:48:21.723Z,16.60
2018-09-03T19:50:50.006Z,15.33
2018-09-03T19:53:18.227Z,16.30
2018-09-03T19:55:46.447Z,16.43
2018-09-03T19:58:15.404Z,16.27
2018-09-03T20:00:43.753Z,16.73
2018-09-03T20:03:12.051Z,17.13
2018-09-03T20:05:40.332Z,15.63
2018-09-03T20:08:08.675Z,16.20
2018-09-03T20:10:36.915Z,15.83
2018-09-03T20:13:05.289Z,16.03
2018-09-03T20:15:33.604Z,15.37
2018-09-03T20:18:01.855Z,15.77
2018-09-03T20:20:30.084Z,16.60
2018-09-03T20:22:58.374Z,15.63
2018-09-03T20:25:26.490Z,15.70
2018-09-03T20:27:54.887Z,16.03
2018-09-03T20:30:23.098Z,16.63
2018-09-03T20:32:54.126Z,16.13
2018-09-03T20:35:22.396Z,17.07
2018-09-03T20:37:50.594Z,16.97
2018-09-03T20:40:18.927Z,16.47
2018-09-03T20:42:47.352Z,16.50
2018-09-03T20:45:15.698Z,17.30
2018-09-03T20:47:44.106Z,16.97
2018-09-03T20:50:12.324Z,17.27
2018-09-03T20:52:40.555Z,16.30
2018-09-03T20:55:08.879Z,17.67
2018-09-03T20:57:37.079Z,18.17
2018-09-03T21:00:06.208Z,17.93
2018-09-03T21:02:34.443Z,17.73
2018-09-03T21:05:02.683Z,18.10
2018-09-03T21:07:31.037Z,18.73
2018-09-03T21:09:59.338Z,17.80
2018-09-03T21:12:27.934Z,18.73
2018-09-03T21:14:56.354Z,18.70
2018-09-03T21:17:25.163Z,17.13
2018-09-03T21:19:57.744Z,16.77
2018-09-03T21:22:26.090Z,18.90
2018-09-03T21:24:54.494Z,18.10
2018-09-03T21:27:22.690Z,17.30
2018-09-03T21:29:52.866Z,17.77
2018-09-03T21:32:21.174Z,17.63
2018-09-03T21:34:49.356Z,18.87
2018-09-03T21:37:17.619Z,18.73
2018-09-03T21:39:45.884Z,18.53
2018-09-03T21:42:14.250Z,17.67
2018-09-03T21:44:42.533Z,17.33
2018-09-03T21:47:10.888Z,18.33
2018-09-03T21:49:39.339Z,18.70
2018-09-03T21:52:07.677Z,19.50
2018-09-03T21:54:35.884Z,17.90
2018-09-03T21:57:04.162Z,19.77
2018-09-03T21:59:32.395Z,19.27
2018-09-03T22:02:00.793Z,17.73
2018-09-03T22:04:28.978Z,19.43
2018-09-03T22:06:57.323Z,20.03
2018-09-03T22:09:25.564Z,19.37
2018-09-03T22:11:53.739Z,19.17
2018-09-03T22:14:21.946Z,18.20
2018-09-03T22:16:50.288Z,18.70
2018-09-03T22:19:18.522Z,19.17
2018-09-03T22:21:46.739Z,19.03
2018-09-03T22:24:15.005Z,19.17
2018-09-03T22:26:43.246Z,18.80
2018-09-03T22:29:11.517Z,18.27
2018-09-03T22:31:39.805Z,19.17
2018-09-03T22:34:08.050Z,19.93
2018-09-03T22:36:36.268Z,19.57
2018-09-03T22:39:05.423Z,19.90
2018-09-03T22:41:33.642Z,21.07
2018-09-03T22:44:01.868Z,19.17
2018-09-03T22:46:30.119Z,18.37
2018-09-03T22:48:58.424Z,20.17
2018-09-03T22:51:26.640Z,18.77
2018-09-03T22:53:54.878Z,18.77
2018-09-03T22:56:23.132Z,20.20
2018-09-03T22:58:51.378Z,20.27
2018-09-03T23:01:19.607Z,20.90
2018-09-03T23:03:47.924Z,20.43
2018-09-03T23:06:16.147Z,20.13
2018-09-03T23:08:44.707Z,20.60
2018-09-03T23:11:13.314Z,20.37
2018-09-03T23:13:41.722Z,20.33
2018-09-03T23:16:10.008Z,19.47
2018-09-03T23:18:38.304Z,18.90
2018-09-03T23:21:07.331Z,19.27
2018-09-03T23:23:35.539Z,19.70
2018-09-03T23:26:03.742Z,19.70
2018-09-03T23:28:31.979Z,19.23
2018-09-03T23:31:00.188Z,17.80
2018-09-03T23:33:28.395Z,19.77
2018-09-03T23:35:56.604Z,18.77
2018-09-03T23:38:24.812Z,18.27
2018-09-03T23:40:53.023Z,17.73
2018-09-03T23:43:21.250Z,19.37
2018-09-03T23:45:49.508Z,18.33
2018-09-03T23:48:17.755Z,18.20
2018-09-03T23:50:46.037Z,18.40
2018-09-03T23:53:14.268Z,18.57
2018-09-03T23:55:42.494Z,17.87
2018-09-03T23:58:10.682Z,17.73
